createdAt,value
2022-09-10T00:00:02.986Z,73.7
2022-09-10T00:03:03.094Z,73.7
2022-09-10T00:06:02.886Z,73.7
2022-09-10T00:09:02.923Z,73.7
2022-09-10T00:12:02.885Z,73.7
2022-09-10T00:15:02.888Z,73.7
2022-09-10T00:18:02.887Z,73.7
2022-09-10T00:21:02.904Z,73.7
2022-09-10T00:24:02.906Z,73.7
2022-09-10T00:27:02.938Z,73.7
2022-09-10T00:30:02.927Z,73.7
2022-09-10T00:33:02.911Z,73.7
2022-09-10T00:36:02.909Z,74.9
2022-09-10T00:39:02.880Z,74.9
2022-09-10T00:42:02.894Z,74.9
2022-09-10T00:45:02.911Z,74.9
2022-09-10T00:48:02.885Z,74.9
2022-09-10T00:51:02.966Z,75.3
2022-09-10T00:54:02.855Z,75.3
2022-09-10T00:57:02.897Z,75.3
2022-09-10T01:00:02.898Z,75.3
2022-09-10T01:03:02.882Z,75.3
2022-09-10T01:06:02.860Z,75.3
2022-09-10T01:09:02.975Z,75.3
2022-09-10T01:12:04.330Z,75.3
2022-09-10T01:15:02.906Z,75.3
2022-09-10T01:18:02.893Z,75.3
2022-09-10T01:21:02.906Z,75.3
2022-09-10T01:24:02.919Z,75.3
2022-09-10T01:27:02.886Z,75.3
2022-09-10T01:30:02.905Z,76.2
2022-09-10T01:33:02.827Z,76.2
2022-09-10T01:36:02.894Z,76.2
2022-09-10T01:39:02.847Z,76.2
2022-09-10T01:42:02.887Z,76.2
2022-09-10T01:45:02.869Z,76.2
2022-09-10T01:48:02.895Z,76.2
2022-09-10T01:51:02.922Z,76.7
2022-09-10T01:54:02.896Z,76.7
2022-09-10T01:57:02.919Z,76.7
2022-09-10T02:00:02.870Z,76.7
2022-09-10T02:03:02.904Z,76.7
2022-09-10T02:06:02.875Z,76.7
2022-09-10T02:09:02.936Z,76.7
2022-09-10T02:12:02.948Z,76.7
2022-09-10T02:15:02.918Z,76.7
2022-09-10T02:18:02.925Z,76.7
2022-09-10T02:21:02.914Z,76.7
2022-09-10T02:24:02.925Z,76.7
2022-09-10T02:27:02.878Z,76.7
2022-09-10T02:30:02.911Z,76.7
2022-09-10T02:33:02.837Z,76.7
2022-09-10T02:36:02.923Z,76.7
2022-09-10T02:39:02.884Z,76.7
2022-09-10T02:42:02.879Z,76.7
2022-09-10T02:45:02.933Z,76.7
2022-09-10T02:48:02.905Z,76.7
2022-09-10T02:51:02.886Z,77.3
2022-09-10T02:54:02.914Z,77.3
2022-09-10T02:57:02.873Z,77.3
2022-09-10T03:00:02.956Z,77.3
2022-09-10T03:03:05.554Z,77.3
2022-09-10T03:06:02.900Z,77.3
2022-09-10T03:09:02.857Z,77.3
2022-09-10T03:12:02.883Z,77.3
2022-09-10T03:15:02.923Z,77.3
2022-09-10T03:18:02.903Z,77.3
2022-09-10T03:21:02.889Z,77.3
2022-09-10T03:24:05.137Z,77.3
2022-09-10T03:27:02.911Z,77.3
2022-09-10T03:30:02.922Z,77.3
2022-09-10T03:33:02.914Z,77.3
2022-09-10T03:36:02.900Z,77.3
2022-09-10T03:39:02.914Z,77.3
2022-09-10T03:42:02.899Z,77.3
2022-09-10T03:45:02.942Z,77.3
2022-09-10T03:48:02.895Z,77.2
2022-09-10T03:51:02.874Z,77.2
2022-09-10T03:54:02.870Z,77.2
2022-09-10T03:57:02.889Z,77.2
2022-09-10T04:00:02.960Z,77.2
2022-09-10T04:03:02.896Z,77.2
2022-09-10T04:06:02.883Z,77.2
2022-09-10T04:09:02.882Z,78.5
2022-09-10T04:12:02.916Z,78.5
2022-09-10T04:15:02.911Z,78.5
2022-09-10T04:18:02.955Z,78.5
2022-09-10T04:21:02.884Z,78.5
2022-09-10T04:24:03.039Z,78.5
2022-09-10T04:27:02.960Z,78.5
2022-09-10T04:30:02.927Z,78.5
2022-09-10T04:33:02.945Z,78.5
2022-09-10T04:36:02.890Z,78.5
2022-09-10T04:39:02.925Z,78.5
2022-09-10T04:42:02.878Z,78.4
2022-09-10T04:45:02.905Z,78.4
2022-09-10T04:48:09.223Z,78.4
2022-09-10T04:51:19.643Z,78.4
2022-09-10T04:54:02.940Z,78.4
2022-09-10T04:57:02.885Z,78.4
2022-09-10T05:00:02.942Z,78.4
2022-09-10T05:03:02.927Z,78.4
2022-09-10T05:06:02.941Z,78.4
2022-09-10T05:09:02.929Z,78.4
2022-09-10T05:12:02.961Z,78.4
2022-09-10T05:15:02.954Z,78.4
2022-09-10T05:18:03.030Z,78.4
2022-09-10T05:21:02.933Z,78.4
2022-09-10T05:24:02.938Z,78.4
2022-09-10T05:27:02.901Z,78.4
2022-09-10T05:30:03.156Z,78.4
2022-09-10T05:33:02.895Z,78.4
2022-09-10T05:36:02.965Z,78.4
2022-09-10T05:39:02.969Z,78.4
2022-09-10T05:42:02.969Z,78.9
2022-09-10T05:45:02.895Z,78.9
2022-09-10T05:48:02.938Z,78.9
2022-09-10T05:51:02.892Z,78.9
2022-09-10T05:54:02.966Z,78.9
2022-09-10T05:57:02.950Z,78.9
2022-09-10T06:00:03.011Z,78.9
2022-09-10T06:03:03.294Z,78.9
2022-09-10T06:06:02.934Z,78.9
2022-09-10T06:09:02.960Z,78.9
2022-09-10T06:12:02.974Z,78.9
2022-09-10T06:15:02.975Z,78.9
2022-09-10T06:18:02.988Z,78.9
2022-09-10T06:21:02.994Z,78.9
2022-09-10T06:24:02.982Z,78.9
2022-09-10T06:27:03.175Z,78.9
2022-09-10T06:30:02.948Z,78.9
2022-09-10T06:33:02.946Z,78.9
2022-09-10T06:36:02.974Z,78.9
2022-09-10T06:39:02.967Z,78.4
2022-09-10T06:42:02.966Z,78
2022-09-10T06:45:03.042Z,78
2022-09-10T06:51:02.980Z,78
2022-09-10T06:54:02.978Z,78
2022-09-10T06:57:02.945Z,78
2022-09-10T07:00:02.981Z,78
2022-09-10T07:03:02.974Z,78
2022-09-10T07:06:02.965Z,78
2022-09-10T07:09:02.910Z,78
2022-09-10T07:12:02.952Z,78
2022-09-10T07:15:02.903Z,78
2022-09-10T07:18:02.978Z,78
2022-09-10T07:21:02.942Z,77.5
2022-09-10T07:24:02.904Z,77.5
2022-09-10T07:27:02.912Z,77.5
2022-09-10T07:30:02.966Z,77.5
2022-09-10T07:33:02.895Z,77.5
2022-09-10T07:36:02.905Z,77.5
2022-09-10T07:39:02.917Z,77.5
2022-09-10T07:42:02.916Z,77.5
2022-09-10T07:45:02.918Z,77.5
2022-09-10T07:48:02.982Z,76.3
2022-09-10T07:51:02.930Z,76.3
2022-09-10T07:54:02.971Z,76.3
2022-09-10T07:57:02.985Z,76.3
2022-09-10T08:00:03.007Z,76.3
2022-09-10T08:03:02.930Z,76.3
2022-09-10T08:06:02.951Z,75.3
2022-09-10T08:09:02.964Z,75.3
2022-09-10T08:12:02.969Z,75.3
2022-09-10T08:15:02.941Z,75.3
2022-09-10T08:18:02.994Z,75.3
2022-09-10T08:21:02.953Z,75.3
2022-09-10T08:24:02.993Z,74.8
2022-09-10T08:27:02.985Z,74.8
2022-09-10T08:30:03.058Z,74.8
2022-09-10T08:33:02.937Z,72.6
2022-09-10T08:36:02.915Z,72.6
2022-09-10T08:39:10.565Z,72.6
2022-09-10T08:42:02.961Z,72.6
2022-09-10T08:45:02.953Z,72.6
2022-09-10T08:48:02.961Z,72.6
2022-09-10T08:51:02.962Z,72.6
2022-09-10T08:54:02.938Z,72.6
2022-09-10T08:57:02.939Z,70.7
2022-09-10T09:00:02.973Z,70.7
2022-09-10T09:03:03.026Z,70.7
2022-09-10T09:06:02.931Z,70.7
2022-09-10T09:09:03.016Z,70.7
2022-09-10T09:12:02.946Z,70.7
2022-09-10T09:15:05.776Z,70.7
2022-09-10T09:18:02.951Z,70.7
2022-09-10T09:21:02.907Z,70.7
2022-09-10T09:24:16.259Z,70.7
2022-09-10T09:27:02.999Z,70.7
2022-09-10T09:30:03.031Z,69
2022-09-10T09:33:02.899Z,69
2022-09-10T09:36:02.952Z,69
2022-09-10T09:39:02.917Z,69
2022-09-10T09:42:02.977Z,69
2022-09-10T09:45:02.970Z,69
2022-09-10T09:48:02.937Z,69
2022-09-10T09:51:02.934Z,69
2022-09-10T09:57:02.941Z,69.3
2022-09-10T10:00:02.979Z,69.3
2022-09-10T10:03:02.996Z,69.3
2022-09-10T10:06:02.987Z,69.3
2022-09-10T10:09:02.914Z,69.3
2022-09-10T10:12:02.930Z,69.3
2022-09-10T10:15:02.923Z,69.3
2022-09-10T10:18:02.991Z,69.3
2022-09-10T10:21:02.992Z,69.3
2022-09-10T10:24:03.002Z,69.3
2022-09-10T10:27:02.987Z,69.3
2022-09-10T10:30:03.041Z,69.3
2022-09-10T10:33:02.901Z,69.3
2022-09-10T10:36:03.054Z,67.6
2022-09-10T10:39:03.027Z,67.6
2022-09-10T10:42:02.948Z,67.6
2022-09-10T10:45:02.993Z,67.6
2022-09-10T10:48:02.989Z,67.6
2022-09-10T10:51:02.997Z,67.6
2022-09-10T10:54:02.921Z,67.6
2022-09-10T10:57:02.938Z,67.6
2022-09-10T11:00:03.049Z,67.6
2022-09-10T11:03:03.002Z,67.6
2022-09-10T11:06:02.953Z,67.6
2022-09-10T11:09:03.039Z,67.6
2022-09-10T11:12:03.036Z,66
2022-09-10T11:15:02.970Z,66
2022-09-10T11:18:02.940Z,66
2022-09-10T11:21:02.944Z,66
2022-09-10T11:24:03.001Z,66
2022-09-10T11:27:03.003Z,66
2022-09-10T11:30:02.926Z,66
2022-09-10T11:33:03.024Z,66
2022-09-10T11:36:02.948Z,66
2022-09-10T11:39:02.923Z,66
2022-09-10T11:42:03.064Z,66
2022-09-10T11:45:02.961Z,66
2022-09-10T11:48:02.989Z,66
2022-09-10T11:51:02.907Z,66
2022-09-10T11:54:02.974Z,66
2022-09-10T11:57:02.959Z,66
2022-09-10T12:00:03.132Z,66
2022-09-10T12:03:02.937Z,66
2022-09-10T12:06:02.912Z,66
2022-09-10T12:09:02.953Z,66
2022-09-10T12:12:02.922Z,64.1
2022-09-10T12:15:03.013Z,64.1
2022-09-10T12:18:02.931Z,64.1
2022-09-10T12:21:03.016Z,64.1
2022-09-10T12:24:02.929Z,64.1
2022-09-10T12:27:02.960Z,64.1
2022-09-10T12:30:03.016Z,64.1
2022-09-10T12:33:03.060Z,64.1
2022-09-10T12:36:03.000Z,64.1
2022-09-10T12:39:02.971Z,64.1
2022-09-10T12:42:02.970Z,64.1
2022-09-10T12:45:02.981Z,64.1
2022-09-10T12:48:03.033Z,64.1
2022-09-10T12:51:03.049Z,64.1
2022-09-10T12:54:02.930Z,64.1
2022-09-10T12:57:02.959Z,64.1
2022-09-10T13:00:03.146Z,64.1
2022-09-10T13:03:02.956Z,64.1
2022-09-10T13:06:02.974Z,67.4
2022-09-10T13:09:02.979Z,67.4
2022-09-10T13:12:03.006Z,67.4
2022-09-10T13:15:02.985Z,67.4
2022-09-10T13:18:02.967Z,67.4
2022-09-10T13:21:02.921Z,67.4
2022-09-10T13:24:02.986Z,67.4
2022-09-10T13:27:02.905Z,67.4
2022-09-10T13:30:03.100Z,66.8
2022-09-10T13:33:03.011Z,66.8
2022-09-10T13:36:02.985Z,66.8
2022-09-10T13:39:05.543Z,66.8
2022-09-10T13:42:03.006Z,66.8
2022-09-10T13:45:02.973Z,66.8
2022-09-10T13:48:02.947Z,66.8
2022-09-10T13:51:02.909Z,66.8
2022-09-10T13:54:02.997Z,66.8
2022-09-10T13:57:02.900Z,69.3
2022-09-10T14:00:03.207Z,69.3
2022-09-10T14:03:02.943Z,69.4
2022-09-10T14:06:02.974Z,69.4
2022-09-10T14:09:02.965Z,69.4
2022-09-10T14:12:02.977Z,69.4
2022-09-10T14:15:03.012Z,69.4
2022-09-10T14:18:02.997Z,69.4
2022-09-10T14:21:02.926Z,69.4
2022-09-10T14:24:03.012Z,69.4
2022-09-10T14:27:03.029Z,69.4
2022-09-10T14:30:03.002Z,69.4
2022-09-10T14:33:03.039Z,69.4
2022-09-10T14:36:03.006Z,69.4
2022-09-10T14:39:02.960Z,69.4
2022-09-10T14:42:02.948Z,69.4
2022-09-10T14:45:02.942Z,69.4
2022-09-10T14:48:03.166Z,69.4
2022-09-10T14:51:02.970Z,69.4
2022-09-10T14:54:02.980Z,69.4
2022-09-10T14:57:02.923Z,69.4
2022-09-10T15:00:03.214Z,69.4
2022-09-10T15:03:02.911Z,67.6
2022-09-10T15:06:02.948Z,67.6
2022-09-10T15:09:02.940Z,67.6
2022-09-10T15:12:02.954Z,67.6
2022-09-10T15:15:02.942Z,67.6
2022-09-10T15:18:02.943Z,67.6
2022-09-10T15:21:02.907Z,67.6
2022-09-10T15:24:02.934Z,67.6
2022-09-10T15:27:02.934Z,67.6
2022-09-10T15:30:02.994Z,67.6
2022-09-10T15:33:02.930Z,67.6
2022-09-10T15:36:02.930Z,67.6
2022-09-10T15:39:02.987Z,67.6
2022-09-10T15:42:02.968Z,68.2
2022-09-10T15:45:02.907Z,68.2
2022-09-10T15:48:02.922Z,68.2
2022-09-10T15:51:02.911Z,68.2
2022-09-10T15:54:07.655Z,68.2
2022-09-10T15:57:02.936Z,68.2
2022-09-10T16:00:03.062Z,68.2
2022-09-10T16:03:03.090Z,67.8
2022-09-10T16:06:02.972Z,67.8
2022-09-10T16:09:03.024Z,67.8
2022-09-10T16:12:02.958Z,67.8
2022-09-10T16:15:02.870Z,67.8
2022-09-10T16:18:02.928Z,67.8
2022-09-10T16:21:02.957Z,67.8
2022-09-10T16:24:02.949Z,67.8
2022-09-10T16:27:02.938Z,67.8
2022-09-10T16:30:03.005Z,67.8
2022-09-10T16:33:02.934Z,67.4
2022-09-10T16:36:03.129Z,67.4
2022-09-10T16:39:02.963Z,67.4
2022-09-10T16:42:02.913Z,67.4
2022-09-10T16:45:02.947Z,67.4
2022-09-10T16:48:06.811Z,67.4
2022-09-10T16:51:02.891Z,65.7
2022-09-10T16:54:02.927Z,65.7
2022-09-10T16:57:02.937Z,65.7
2022-09-10T17:00:02.955Z,66
2022-09-10T17:03:02.984Z,66
2022-09-10T17:06:02.970Z,66
2022-09-10T17:09:02.901Z,66
2022-09-10T17:12:02.988Z,66
2022-09-10T17:15:02.940Z,66
2022-09-10T17:18:02.960Z,66
2022-09-10T17:21:02.940Z,66
2022-09-10T17:24:02.987Z,66
2022-09-10T17:27:02.986Z,66
2022-09-10T17:30:02.988Z,66
2022-09-10T17:33:02.944Z,66
2022-09-10T17:36:02.945Z,66
2022-09-10T17:39:02.925Z,68.8
2022-09-10T17:42:02.965Z,68.8
2022-09-10T17:45:02.994Z,68.8
2022-09-10T17:48:02.916Z,68.8
2022-09-10T17:51:02.881Z,68.8
2022-09-10T17:54:02.964Z,69.5
2022-09-10T17:57:02.866Z,69.5
2022-09-10T18:00:02.933Z,69.5
2022-09-10T18:03:03.053Z,69.5
2022-09-10T18:06:02.898Z,69.5
2022-09-10T18:09:03.174Z,69.5
2022-09-10T18:12:02.887Z,69.5
2022-09-10T18:15:02.862Z,69.5
2022-09-10T18:18:02.935Z,70
2022-09-10T18:21:02.882Z,70
2022-09-10T18:24:02.900Z,70
2022-09-10T18:27:02.880Z,70
2022-09-10T18:30:02.985Z,70
2022-09-10T18:33:02.975Z,70
2022-09-10T18:36:02.878Z,71.5
2022-09-10T18:39:02.870Z,71.5
2022-09-10T18:42:02.915Z,71.5
2022-09-10T18:45:02.871Z,71.5
2022-09-10T18:48:02.937Z,72
2022-09-10T18:51:02.902Z,72
2022-09-10T18:54:02.930Z,72
2022-09-10T18:57:02.919Z,72
2022-09-10T19:00:02.905Z,72
2022-09-10T19:03:02.904Z,72
2022-09-10T19:06:02.904Z,72.3
2022-09-10T19:09:02.918Z,72.3
2022-09-10T19:12:02.923Z,72.3
2022-09-10T19:15:02.943Z,72.3
2022-09-10T19:18:08.823Z,72.3
2022-09-10T19:21:02.987Z,72.3
2022-09-10T19:24:02.918Z,72.3
2022-09-10T19:27:02.912Z,72.3
2022-09-10T19:30:02.930Z,73.1
2022-09-10T19:33:02.867Z,73.1
2022-09-10T19:36:02.909Z,73.1
2022-09-10T19:39:02.895Z,73.1
2022-09-10T19:42:02.924Z,73.9
2022-09-10T19:45:05.851Z,73.9
2022-09-10T19:48:02.874Z,73.9
2022-09-10T19:51:02.889Z,73.9
2022-09-10T19:54:02.899Z,73.9
2022-09-10T19:57:02.922Z,73.9
2022-09-10T20:00:02.905Z,73.9
2022-09-10T20:03:02.881Z,73.9
2022-09-10T20:06:02.909Z,73.9
2022-09-10T20:09:02.892Z,73.9
2022-09-10T20:12:02.869Z,74.9
2022-09-10T20:15:02.857Z,74.9
2022-09-10T20:18:02.921Z,74.9
2022-09-10T20:21:02.937Z,74.9
2022-09-10T20:24:02.921Z,74.9
2022-09-10T20:27:02.882Z,74.9
2022-09-10T20:30:02.982Z,74.9
2022-09-10T20:33:02.911Z,74.9
2022-09-10T20:36:02.956Z,74.9
2022-09-10T20:39:02.917Z,75.7
2022-09-10T20:42:02.902Z,75.7
2022-09-10T20:45:03.022Z,75.7
2022-09-10T20:48:03.085Z,75.7
2022-09-10T20:51:02.892Z,75.7
2022-09-10T20:54:02.909Z,75.7
2022-09-10T20:57:02.867Z,75.7
2022-09-10T21:00:02.990Z,75.7
2022-09-10T21:03:02.894Z,75.7
2022-09-10T21:06:02.913Z,75.7
2022-09-10T21:09:02.927Z,77.3
2022-09-10T21:12:02.919Z,77.3
2022-09-10T21:15:02.945Z,77.3
2022-09-10T21:18:02.872Z,77.3
2022-09-10T21:21:02.889Z,77.3
2022-09-10T21:24:02.912Z,77.3
2022-09-10T21:27:02.909Z,77.3
2022-09-10T21:30:03.012Z,79.4
2022-09-10T21:33:02.913Z,79.4
2022-09-10T21:36:02.926Z,79.4
2022-09-10T21:39:02.881Z,79.8
2022-09-10T21:42:02.890Z,79.8
2022-09-10T21:45:02.849Z,79.8
2022-09-10T21:48:02.900Z,79.8
2022-09-10T21:51:02.866Z,79.8
2022-09-10T21:54:02.950Z,79.8
2022-09-10T21:57:02.848Z,79.8
2022-09-10T22:00:03.198Z,79.8
2022-09-10T22:03:02.902Z,79.8
2022-09-10T22:06:02.916Z,79.8
2022-09-10T22:09:02.914Z,79.8
2022-09-10T22:12:02.888Z,79.8
2022-09-10T22:15:02.928Z,79.1
2022-09-10T22:18:02.906Z,79.1
2022-09-10T22:21:02.849Z,79.1
2022-09-10T22:24:02.902Z,79.1
2022-09-10T22:27:02.868Z,79.1
2022-09-10T22:30:02.902Z,79.1
2022-09-10T22:33:02.860Z,79.1
2022-09-10T22:36:02.941Z,79.1
2022-09-10T22:39:02.910Z,79.1
2022-09-10T22:42:02.958Z,79.1
2022-09-10T22:45:02.893Z,79.1
2022-09-10T22:48:02.900Z,79.1
2022-09-10T22:51:02.906Z,79.1
2022-09-10T22:54:02.855Z,79.1
2022-09-10T22:57:02.939Z,79.1
2022-09-10T23:00:02.916Z,80.1
2022-09-10T23:03:02.866Z,80.1
2022-09-10T23:06:02.946Z,80.1
2022-09-10T23:09:02.911Z,80.1
2022-09-10T23:12:02.935Z,81.6
2022-09-10T23:15:02.937Z,81.6
2022-09-10T23:18:02.911Z,81.6
2022-09-10T23:21:02.868Z,81.6
2022-09-10T23:24:02.933Z,81.6
2022-09-10T23:27:02.879Z,81.6
2022-09-10T23:30:02.926Z,81.6
2022-09-10T23:33:02.899Z,82.2
2022-09-10T23:36:02.919Z,82.2
2022-09-10T23:39:02.887Z,82.2
2022-09-10T23:42:02.870Z,82.2
2022-09-10T23:45:02.907Z,82.2
2022-09-10T23:48:03.028Z,82.2
2022-09-10T23:51:02.926Z,82.2
2022-09-10T23:54:02.903Z,82.2
2022-09-10T23:57:02.864Z,82.2
